createdAt,value
2022-10-25T00:00:44.791Z,100919.66
2022-10-25T00:03:12.113Z,100920.88
2022-10-25T00:05:39.186Z,100925.91
2022-10-25T00:08:07.068Z,100929.91
2022-10-25T00:10:33.602Z,100932.78
2022-10-25T00:12:59.991Z,100932.25
2022-10-25T00:15:26.291Z,100939.44
2022-10-25T00:17:52.632Z,100937.59
2022-10-25T00:20:19.611Z,100941.75
2022-10-25T00:22:46.200Z,100943.41
2022-10-25T00:25:14.038Z,100935.41
2022-10-25T00:27:40.336Z,100945.91
2022-10-25T00:30:07.379Z,100949.25
2022-10-25T00:32:33.976Z,100950.88
2022-10-25T00:35:00.277Z,100948.03
2022-10-25T00:37:26.605Z,100948.88
2022-10-25T00:39:52.929Z,100948.53
2022-10-25T00:42:21.718Z,100953.03
2022-10-25T00:44:49.856Z,100946.69
2022-10-25T00:47:21.202Z,100949.38
2022-10-25T00:49:49.379Z,100943.19
2022-10-25T00:52:16.142Z,100948.69
2022-10-25T00:54:44.677Z,100957.06
2022-10-25T00:57:12.752Z,100960.75
2022-10-25T00:59:40.511Z,100959.44
2022-10-25T01:02:07.028Z,100965.47
2022-10-25T01:04:34.017Z,100964.19
2022-10-25T01:07:01.283Z,100969.69
2022-10-25T01:09:29.851Z,100979.22
2022-10-25T01:11:56.135Z,100978.25
2022-10-25T01:14:22.786Z,100974.25
2022-10-25T01:16:55.686Z,100969.13
2022-10-25T01:22:06.793Z,100976.97
2022-10-25T01:24:43.340Z,100974.31
2022-10-25T01:27:27.621Z,100978.97
2022-10-25T01:30:04.920Z,100971.34
2022-10-25T01:32:35.174Z,100977.03
2022-10-25T01:35:07.280Z,100979.34
2022-10-25T01:37:41.122Z,100973.72
2022-10-25T01:40:16.301Z,100991.75
2022-10-25T01:42:49.034Z,100987.56
2022-10-25T01:45:19.457Z,100981.75
2022-10-25T01:47:50.377Z,100983.75
2022-10-25T01:50:18.960Z,100987.44
2022-10-25T01:52:45.338Z,100987.44
2022-10-25T01:55:13.169Z,100984.25
2022-10-25T01:57:44.998Z,100977.25
2022-10-25T02:00:13.752Z,100984.59
2022-10-25T02:03:04.213Z,100978.44
2022-10-25T02:05:36.288Z,100980.94
2022-10-25T02:08:04.424Z,100979.09
2022-10-25T02:10:35.359Z,100988.75
2022-10-25T02:13:03.903Z,100994.28
2022-10-25T02:15:34.007Z,100995.78
2022-10-25T02:18:03.712Z,100996.78
2022-10-25T02:20:32.322Z,100993.44
2022-10-25T02:23:00.941Z,100995.59
2022-10-25T02:25:28.159Z,100998.28
2022-10-25T02:27:55.182Z,100997.44
2022-10-25T02:30:21.470Z,100997.59
2022-10-25T02:32:47.785Z,100999.09
2022-10-25T02:35:16.471Z,100999.59
2022-10-25T02:37:42.801Z,100991.59
2022-10-25T02:40:09.922Z,101004.09
2022-10-25T02:42:36.347Z,100995.09
2022-10-25T02:45:02.716Z,101002.28
2022-10-25T02:47:28.985Z,101004.28
2022-10-25T02:49:55.304Z,101006.94
2022-10-25T02:52:22.942Z,101006.94
2022-10-25T02:54:49.234Z,101008.09
2022-10-25T02:57:15.527Z,101004.94
2022-10-25T02:59:41.808Z,101015.94
2022-10-25T03:02:08.653Z,101008.13
2022-10-25T03:04:34.941Z,101011.78
2022-10-25T03:07:01.228Z,101018.94
2022-10-25T03:09:28.823Z,101026.13
2022-10-25T03:11:55.113Z,101034.13
2022-10-25T03:14:21.398Z,101032.47
2022-10-25T03:19:18.865Z,101041.13
2022-10-25T03:21:45.157Z,101037.63
2022-10-25T03:24:11.764Z,101033.97
2022-10-25T03:26:39.445Z,101037.63
2022-10-25T03:29:05.713Z,101042.13
2022-10-25T03:31:31.987Z,101045.63
2022-10-25T03:33:58.358Z,101051.81
2022-10-25T03:36:24.671Z,101052.63
2022-10-25T03:38:51.028Z,101051.13
2022-10-25T03:41:17.307Z,101054.47
2022-10-25T03:43:44.944Z,101061.81
2022-10-25T03:46:11.268Z,101065.47
2022-10-25T03:48:37.545Z,101061.34
2022-10-25T03:51:03.981Z,101073.84
2022-10-25T03:53:30.295Z,101074.00
2022-10-25T03:55:56.595Z,101070.50
2022-10-25T03:58:22.865Z,101079.50
2022-10-25T04:00:50.662Z,101078.84
2022-10-25T04:03:17.198Z,101074.66
2022-10-25T04:05:43.487Z,101082.50
2022-10-25T04:08:09.769Z,101084.34
2022-10-25T04:10:36.078Z,101074.34
2022-10-25T04:13:02.363Z,101080.50
2022-10-25T04:15:28.648Z,101077.34
2022-10-25T04:17:56.304Z,101081.19
2022-10-25T04:20:22.716Z,101085.69
2022-10-25T04:22:53.296Z,101080.66
2022-10-25T04:25:19.596Z,101083.34
2022-10-25T04:27:46.216Z,101084.50
2022-10-25T04:30:12.785Z,101079.34
2022-10-25T04:32:39.350Z,101083.19
2022-10-25T04:35:07.550Z,101082.50
2022-10-25T04:37:33.813Z,101080.16
2022-10-25T04:40:00.144Z,101080.50
2022-10-25T04:42:26.491Z,101090.50
2022-10-25T04:44:52.797Z,101091.81
2022-10-25T04:47:19.093Z,101093.13
2022-10-25T04:49:45.365Z,101100.50
2022-10-25T04:52:13.000Z,101099.97
2022-10-25T04:54:39.293Z,101105.47
2022-10-25T04:57:05.565Z,101108.28
2022-10-25T04:59:31.852Z,101107.63
2022-10-25T05:01:58.170Z,101108.13
2022-10-25T05:04:24.561Z,101104.94
2022-10-25T05:06:50.835Z,101106.78
2022-10-25T05:09:18.457Z,101108.78
2022-10-25T05:11:44.734Z,101109.78
2022-10-25T05:14:11.013Z,101112.78
2022-10-25T05:16:37.490Z,101113.09
2022-10-25T05:19:03.745Z,101121.09
2022-10-25T05:21:30.058Z,101124.75
2022-10-25T05:24:00.537Z,101123.09
2022-10-25T05:26:30.118Z,101127.75
2022-10-25T05:28:56.431Z,101126.91
2022-10-25T05:31:23.570Z,101127.91
2022-10-25T05:33:50.678Z,101136.25
2022-10-25T05:36:17.266Z,101133.56
2022-10-25T05:38:43.566Z,101128.41
2022-10-25T05:41:10.331Z,101139.22
2022-10-25T05:43:38.016Z,101134.38
2022-10-25T05:46:05.642Z,101132.53
2022-10-25T05:48:32.741Z,101138.84
2022-10-25T05:51:20.950Z,101141.38
2022-10-25T05:53:55.256Z,101145.72
2022-10-25T05:56:22.569Z,101143.19
2022-10-25T05:58:50.232Z,101141.53
2022-10-25T06:01:17.556Z,101148.72
2022-10-25T06:03:44.283Z,101153.22
2022-10-25T06:06:11.847Z,101155.69
2022-10-25T06:08:38.502Z,101155.03
2022-10-25T06:11:06.444Z,101166.69
2022-10-25T06:13:33.024Z,101167.53
2022-10-25T06:16:02.839Z,101174.69
2022-10-25T06:18:29.113Z,101165.03
2022-10-25T06:20:55.418Z,101170.34
2022-10-25T06:23:21.724Z,101175.69
2022-10-25T06:25:48.008Z,101174.84
2022-10-25T06:28:14.286Z,101174.84
2022-10-25T06:30:40.562Z,101185.19
2022-10-25T06:33:08.205Z,101175.38
2022-10-25T06:35:34.474Z,101191.34
2022-10-25T06:38:00.766Z,101199.84
2022-10-25T06:40:27.306Z,101195.88
2022-10-25T06:42:54.069Z,101199.53
2022-10-25T06:45:20.346Z,101203.03
2022-10-25T06:47:46.623Z,101203.03
2022-10-25T06:50:14.512Z,101203.88
2022-10-25T06:52:40.795Z,101213.53
2022-10-25T06:55:07.231Z,101215.38
2022-10-25T06:57:33.576Z,101209.03
2022-10-25T07:02:31.287Z,101210.53
2022-10-25T07:04:57.643Z,101220.38
2022-10-25T07:07:25.338Z,101216.69
2022-10-25T07:09:51.625Z,101221.03
2022-10-25T07:12:17.932Z,101220.88
2022-10-25T07:14:44.433Z,101233.75
2022-10-25T07:17:10.714Z,101231.56
2022-10-25T07:19:37.012Z,101238.41
2022-10-25T07:22:03.326Z,101233.59
2022-10-25T07:24:30.928Z,101234.97
2022-10-25T07:26:57.201Z,101233.78
2022-10-25T07:29:23.513Z,101246.66
2022-10-25T07:31:49.785Z,101249.16
2022-10-25T07:34:16.059Z,101244.31
2022-10-25T07:36:42.357Z,101250.16
2022-10-25T07:39:08.668Z,101250.53
2022-10-25T07:41:36.294Z,101256.22
2022-10-25T07:44:02.596Z,101258.56
2022-10-25T07:46:28.901Z,101253.41
2022-10-25T07:48:55.195Z,101254.59
2022-10-25T07:51:21.507Z,101255.94
2022-10-25T07:53:48.084Z,101262.97
2022-10-25T07:56:17.608Z,101267.81
2022-10-25T07:58:48.290Z,101260.47
2022-10-25T08:01:17.891Z,101270.16
2022-10-25T08:03:44.223Z,101274.34
2022-10-25T08:06:10.525Z,101274.00
2022-10-25T08:08:36.847Z,101275.69
2022-10-25T08:11:03.207Z,101275.00
2022-10-25T08:13:29.714Z,101275.34
2022-10-25T08:15:57.325Z,101278.19
2022-10-25T08:18:23.728Z,101285.72
2022-10-25T08:21:01.740Z,101286.34
2022-10-25T08:23:28.581Z,101286.84
2022-10-25T08:25:54.846Z,101286.88
2022-10-25T08:28:21.151Z,101284.34
2022-10-25T08:30:47.439Z,101292.19
2022-10-25T08:33:15.057Z,101290.50
2022-10-25T08:35:41.354Z,101288.69
2022-10-25T08:38:07.650Z,101288.50
2022-10-25T08:40:41.310Z,101295.88
2022-10-25T08:43:13.516Z,101283.50
2022-10-25T08:45:43.774Z,101296.81
2022-10-25T08:48:15.894Z,101290.81
2022-10-25T08:50:44.983Z,101293.50
2022-10-25T08:53:14.921Z,101290.97
2022-10-25T08:55:58.779Z,101299.66
2022-10-25T08:58:32.158Z,101294.00
2022-10-25T09:01:01.100Z,101298.31
2022-10-25T09:03:27.754Z,101307.81
2022-10-25T09:06:01.859Z,101307.81
2022-10-25T09:08:36.687Z,101305.97
2022-10-25T09:11:10.311Z,101304.78
2022-10-25T09:13:41.089Z,101305.13
2022-10-25T09:16:12.371Z,101313.69
2022-10-25T09:18:42.361Z,101322.00
2022-10-25T09:21:16.503Z,101317.50
2022-10-25T09:23:54.016Z,101324.81
2022-10-25T09:26:22.970Z,101327.97
2022-10-25T09:28:50.565Z,101322.63
2022-10-25T09:31:19.925Z,101333.81
2022-10-25T09:33:47.011Z,101333.13
2022-10-25T09:36:15.142Z,101333.63
2022-10-25T09:38:43.933Z,101338.78
2022-10-25T09:41:11.770Z,101347.13
2022-10-25T09:43:40.828Z,101352.47
2022-10-25T09:46:12.464Z,101346.28
2022-10-25T09:48:42.339Z,101349.97
2022-10-25T09:51:12.588Z,101348.66
2022-10-25T09:53:41.020Z,101345.81
2022-10-25T09:56:07.576Z,101344.97
2022-10-25T09:58:34.970Z,101347.84
2022-10-25T10:01:03.983Z,101352.16
2022-10-25T10:03:31.909Z,101356.88
2022-10-25T10:06:00.351Z,101370.72
2022-10-25T10:08:27.101Z,101367.56
2022-10-25T10:10:56.041Z,101359.34
2022-10-25T10:13:31.427Z,101362.19
2022-10-25T10:15:59.615Z,101358.28
2022-10-25T10:18:27.599Z,101361.25
2022-10-25T10:21:14.736Z,101368.94
2022-10-25T10:23:49.002Z,101368.13
2022-10-25T10:26:20.609Z,101368.94
2022-10-25T10:28:48.333Z,101369.63
2022-10-25T10:31:14.999Z,101375.16
2022-10-25T10:33:46.609Z,101366.09
2022-10-25T10:36:23.567Z,101372.13
2022-10-25T10:38:50.054Z,101368.94
2022-10-25T10:41:22.315Z,101384.50
2022-10-25T10:43:48.610Z,101381.66
2022-10-25T10:46:15.775Z,101385.50
2022-10-25T10:48:44.079Z,101386.00
2022-10-25T10:51:25.198Z,101388.16
2022-10-25T10:53:57.444Z,101374.28
2022-10-25T10:56:25.145Z,101381.13
2022-10-25T10:58:53.603Z,101374.75
2022-10-25T11:01:30.014Z,101381.25
2022-10-25T11:04:00.390Z,101381.03
2022-10-25T11:06:28.294Z,101377.63
2022-10-25T11:09:07.861Z,101374.44
2022-10-25T11:11:35.621Z,101379.78
2022-10-25T11:14:07.469Z,101379.44
2022-10-25T11:16:47.585Z,101383.97
2022-10-25T11:19:21.954Z,101381.56
2022-10-25T11:21:53.763Z,101385.22
2022-10-25T11:24:26.183Z,101385.88
2022-10-25T11:26:57.269Z,101385.69
2022-10-25T11:29:32.384Z,101394.94
2022-10-25T11:32:04.164Z,101385.06
2022-10-25T11:34:38.463Z,101388.75
2022-10-25T11:37:09.547Z,101393.09
2022-10-25T11:39:44.695Z,101391.03
2022-10-25T11:45:01.732Z,101386.84
2022-10-25T11:47:33.822Z,101382.47
2022-10-25T11:50:10.984Z,101379.63
2022-10-25T11:52:45.679Z,101378.78
2022-10-25T11:55:20.132Z,101369.91
2022-10-25T11:57:52.739Z,101373.59
2022-10-25T12:00:23.180Z,101368.72
2022-10-25T12:02:59.608Z,101372.88
2022-10-25T12:05:28.936Z,101374.75
2022-10-25T12:08:03.424Z,101373.25
2022-10-25T12:10:32.650Z,101374.09
2022-10-25T12:13:02.209Z,101373.09
2022-10-25T12:15:33.891Z,101378.78
2022-10-25T12:18:00.302Z,101373.78
2022-10-25T12:20:28.367Z,101379.50
2022-10-25T12:22:56.691Z,101382.16
2022-10-25T12:25:25.070Z,101373.78
2022-10-25T12:27:56.824Z,101383.31
2022-10-25T12:30:27.513Z,101371.03
2022-10-25T12:32:55.981Z,101373.00
2022-10-25T12:35:23.687Z,101381.53
2022-10-25T12:37:55.068Z,101373.78
2022-10-25T12:42:59.810Z,101372.03
2022-10-25T12:45:37.461Z,101377.88
2022-10-25T12:48:09.294Z,101370.97
2022-10-25T12:50:51.002Z,101372.06
2022-10-25T12:53:31.713Z,101369.88
2022-10-25T12:56:01.432Z,101363.84
2022-10-25T12:58:33.908Z,101361.00
2022-10-25T13:01:07.491Z,101361.34
2022-10-25T13:03:48.291Z,101359.81
2022-10-25T13:06:35.426Z,101357.38
2022-10-25T13:09:04.441Z,101362.25
2022-10-25T13:11:35.230Z,101359.84
2022-10-25T13:14:02.119Z,101360.31
2022-10-25T13:16:31.046Z,101357.94
2022-10-25T13:19:21.752Z,101348.13
2022-10-25T13:22:06.957Z,101359.09
2022-10-25T13:24:37.665Z,101357.00
2022-10-25T13:27:12.742Z,101353.56
2022-10-25T13:30:09.031Z,101364.00
2022-10-25T13:32:37.443Z,101353.63
2022-10-25T13:35:25.559Z,101361.97
2022-10-25T13:37:52.976Z,101354.94
2022-10-25T13:40:21.627Z,101357.09
2022-10-25T13:42:49.506Z,101356.88
2022-10-25T13:45:20.996Z,101354.66
2022-10-25T13:47:49.982Z,101355.31
2022-10-25T13:50:19.562Z,101354.00
2022-10-25T13:52:52.881Z,101362.16
2022-10-25T13:55:20.991Z,101355.03
2022-10-25T13:57:49.260Z,101360.81
2022-10-25T14:00:30.446Z,101356.56
2022-10-25T14:03:05.574Z,101351.72
2022-10-25T14:05:50.552Z,101350.41
2022-10-25T14:08:20.995Z,101348.72
2022-10-25T14:10:48.121Z,101351.63
2022-10-25T14:13:17.684Z,101356.16
2022-10-25T14:15:48.738Z,101355.59
2022-10-25T14:18:18.306Z,101355.88
2022-10-25T14:20:46.118Z,101347.00
2022-10-25T14:23:14.656Z,101342.94
2022-10-25T14:25:41.842Z,101340.91
2022-10-25T14:28:12.963Z,101344.41
2022-10-25T14:30:41.231Z,101338.03
2022-10-25T14:33:21.226Z,101333.44
2022-10-25T14:35:48.412Z,101343.38
2022-10-25T14:38:15.644Z,101342.91
2022-10-25T14:40:42.051Z,101340.25
2022-10-25T14:43:13.152Z,101338.66
2022-10-25T14:45:39.470Z,101344.50
2022-10-25T14:48:08.398Z,101333.88
2022-10-25T14:50:37.345Z,101337.34
2022-10-25T14:53:03.760Z,101336.63
2022-10-25T14:55:31.155Z,101335.50
2022-10-25T14:57:58.755Z,101333.66
2022-10-25T15:00:25.595Z,101327.19
2022-10-25T15:02:54.054Z,101316.38
2022-10-25T15:05:21.441Z,101320.25
2022-10-25T15:07:53.238Z,101320.53
2022-10-25T15:10:37.642Z,101326.22
2022-10-25T15:13:04.736Z,101325.75
2022-10-25T15:15:33.188Z,101325.81
2022-10-25T15:17:59.603Z,101324.31
2022-10-25T15:20:27.953Z,101320.50
2022-10-25T15:23:03.075Z,101315.78
2022-10-25T15:25:30.595Z,101312.81
2022-10-25T15:28:08.559Z,101312.81
2022-10-25T15:30:45.707Z,101323.59
2022-10-25T15:33:13.513Z,101325.13
2022-10-25T15:35:43.793Z,101314.47
2022-10-25T15:38:10.655Z,101312.88
2022-10-25T15:40:37.005Z,101319.94
2022-10-25T15:43:03.266Z,101316.97
2022-10-25T15:45:29.747Z,101318.50
2022-10-25T15:47:58.164Z,101307.34
2022-10-25T15:50:24.741Z,101314.00
2022-10-25T15:52:51.118Z,101318.53
2022-10-25T15:55:18.858Z,101316.56
2022-10-25T15:57:45.159Z,101314.75
2022-10-25T16:00:13.162Z,101313.13
2022-10-25T16:02:39.472Z,101300.63
2022-10-25T16:05:15.161Z,101299.84
2022-10-25T16:07:41.457Z,101306.03
2022-10-25T16:10:08.200Z,101297.06
2022-10-25T16:12:34.503Z,101298.25
2022-10-25T16:15:01.227Z,101309.84
2022-10-25T16:17:27.573Z,101303.47
2022-10-25T16:19:53.892Z,101306.34
2022-10-25T16:22:21.585Z,101302.88
2022-10-25T16:24:54.401Z,101310.91
2022-10-25T16:27:21.149Z,101306.56
2022-10-25T16:29:47.501Z,101305.72
2022-10-25T16:32:14.197Z,101304.06
2022-10-25T16:34:40.481Z,101309.25
2022-10-25T16:37:09.272Z,101313.41
2022-10-25T16:39:39.146Z,101308.75
2022-10-25T16:42:25.749Z,101308.56
2022-10-25T16:44:52.061Z,101313.91
2022-10-25T16:47:18.376Z,101315.56
2022-10-25T16:49:44.669Z,101314.38
2022-10-25T16:52:10.983Z,101314.06
2022-10-25T16:54:38.662Z,101306.84
2022-10-25T16:57:04.957Z,101301.34
2022-10-25T16:59:31.256Z,101295.16
2022-10-25T17:01:57.878Z,101289.50
2022-10-25T17:04:24.288Z,101297.00
2022-10-25T17:06:50.584Z,101292.13
2022-10-25T17:09:16.982Z,101287.31
2022-10-25T17:11:44.686Z,101295.25
2022-10-25T17:14:11.849Z,101286.59
2022-10-25T17:16:38.975Z,101287.25
2022-10-25T17:19:05.278Z,101281.59
2022-10-25T17:21:31.644Z,101284.13
2022-10-25T17:23:57.925Z,101279.47
2022-10-25T17:26:24.276Z,101286.47
2022-10-25T17:28:51.919Z,101281.97
2022-10-25T17:31:18.247Z,101269.78
2022-10-25T17:33:44.791Z,101278.78
2022-10-25T17:36:12.028Z,101277.25
2022-10-25T17:38:38.556Z,101279.44
2022-10-25T17:41:05.093Z,101276.09
2022-10-25T17:43:31.491Z,101273.28
2022-10-25T17:46:02.054Z,101274.44
2022-10-25T17:48:28.682Z,101271.06
2022-10-25T17:50:59.778Z,101270.41
2022-10-25T17:53:26.082Z,101267.38
2022-10-25T17:55:52.356Z,101278.19
2022-10-25T17:58:18.639Z,101272.19
2022-10-25T18:00:44.946Z,101268.16
2022-10-25T18:03:12.637Z,101275.47
2022-10-25T18:05:39.408Z,101272.16
2022-10-25T18:08:05.911Z,101272.47
2022-10-25T18:10:32.649Z,101280.63
2022-10-25T18:12:58.945Z,101279.78
2022-10-25T18:15:25.229Z,101276.44
2022-10-25T18:17:51.708Z,101275.81
2022-10-25T18:20:19.422Z,101268.94
2022-10-25T18:22:45.767Z,101276.25
2022-10-25T18:25:12.141Z,101276.59
2022-10-25T18:27:38.440Z,101281.41
2022-10-25T18:30:05.169Z,101276.41
2022-10-25T18:32:35.254Z,101275.03
2022-10-25T18:35:02.762Z,101280.38
2022-10-25T18:37:30.403Z,101272.69
2022-10-25T18:39:56.723Z,101269.19
2022-10-25T18:42:23.032Z,101272.88
2022-10-25T18:44:49.325Z,101265.19
2022-10-25T18:47:15.600Z,101261.66
2022-10-25T18:49:41.905Z,101265.31
2022-10-25T18:52:08.196Z,101255.66
2022-10-25T18:54:35.824Z,101259.63
2022-10-25T18:57:02.105Z,101258.63
2022-10-25T18:59:28.399Z,101257.78
2022-10-25T19:01:54.818Z,101249.16
2022-10-25T19:04:21.210Z,101256.31
2022-10-25T19:06:47.497Z,101251.28
2022-10-25T19:09:13.826Z,101247.78
2022-10-25T19:11:41.418Z,101245.59
2022-10-25T19:14:07.703Z,101248.41
2022-10-25T19:16:33.977Z,101249.59
2022-10-25T19:19:01.481Z,101245.25
2022-10-25T19:21:27.780Z,101240.06
2022-10-25T19:23:54.076Z,101237.56
2022-10-25T19:26:21.222Z,101239.53
2022-10-25T19:28:54.567Z,101234.38
2022-10-25T19:31:20.876Z,101229.22
2022-10-25T19:33:47.374Z,101233.03
2022-10-25T19:36:13.900Z,101235.16
2022-10-25T19:38:40.205Z,101238.31
2022-10-25T19:41:08.248Z,101226.81
2022-10-25T19:43:34.861Z,101233.13
2022-10-25T19:46:03.489Z,101233.13
2022-10-25T19:48:30.470Z,101227.81
2022-10-25T19:50:56.751Z,101226.13
2022-10-25T19:53:23.153Z,101227.13
2022-10-25T19:55:57.809Z,101233.44
2022-10-25T19:58:24.107Z,101230.09
2022-10-25T20:00:50.392Z,101215.09
2022-10-25T20:03:17.988Z,101222.41
2022-10-25T20:05:44.286Z,101219.09
2022-10-25T20:08:10.553Z,101221.53
2022-10-25T20:10:36.820Z,101218.34
2022-10-25T20:13:04.774Z,101223.00
2022-10-25T20:15:31.285Z,101219.81
2022-10-25T20:17:57.869Z,101225.13
2022-10-25T20:20:25.546Z,101222.31
2022-10-25T20:22:51.821Z,101215.31
2022-10-25T20:25:18.086Z,101222.47
2022-10-25T20:27:44.426Z,101214.94
2022-10-25T20:30:10.825Z,101213.44
2022-10-25T20:32:37.251Z,101207.06
2022-10-25T20:37:32.280Z,101206.69
2022-10-25T20:39:58.587Z,101214.16
2022-10-25T20:42:24.890Z,101210.75
2022-10-25T20:44:51.286Z,101208.59
2022-10-25T20:47:17.602Z,101202.88
2022-10-25T20:49:43.883Z,101199.53
2022-10-25T20:52:10.178Z,101205.00
2022-10-25T20:54:37.805Z,101194.34
2022-10-25T20:57:04.093Z,101201.69
2022-10-25T20:59:30.385Z,101201.97
2022-10-25T21:01:56.777Z,101193.75
2022-10-25T21:04:36.045Z,101202.28
2022-10-25T21:07:08.586Z,101194.44
2022-10-25T21:09:34.882Z,101194.44
2022-10-25T21:12:02.538Z,101187.16
2022-10-25T21:14:28.882Z,101194.44
2022-10-25T21:16:55.222Z,101191.94
2022-10-25T21:19:21.497Z,101190.66
2022-10-25T21:21:47.821Z,101186.31
2022-10-25T21:24:14.218Z,101193.31
2022-10-25T21:26:40.508Z,101183.94
2022-10-25T21:29:08.155Z,101189.13
2022-10-25T21:31:34.432Z,101191.44
2022-10-25T21:34:00.809Z,101188.06
2022-10-25T21:36:27.114Z,101187.25
2022-10-25T21:38:53.422Z,101190.03
2022-10-25T21:41:20.886Z,101181.84
2022-10-25T21:43:48.140Z,101183.69
2022-10-25T21:46:16.468Z,101197.13
2022-10-25T21:48:43.049Z,101193.47
2022-10-25T21:51:09.416Z,101189.16
2022-10-25T21:53:35.806Z,101193.78
2022-10-25T21:56:03.191Z,101193.78
2022-10-25T21:58:29.465Z,101196.44
2022-10-25T22:00:55.755Z,101191.81
2022-10-25T22:03:25.588Z,101183.28
2022-10-25T22:05:53.917Z,101190.28
2022-10-25T22:08:20.192Z,101188.59
2022-10-25T22:10:53.812Z,101195.59
2022-10-25T22:13:20.150Z,101191.81
2022-10-25T22:15:54.087Z,101182.84
2022-10-25T22:18:20.391Z,101181.84
2022-10-25T22:20:53.314Z,101187.19
2022-10-25T22:23:19.580Z,101185.22
2022-10-25T22:25:45.895Z,101178.06
2022-10-25T22:28:12.218Z,101178.06
2022-10-25T22:30:38.471Z,101177.22
2022-10-25T22:33:04.745Z,101180.53
2022-10-25T22:35:31.665Z,101178.72
2022-10-25T22:37:59.283Z,101174.38
2022-10-25T22:40:25.577Z,101174.56
2022-10-25T22:42:51.857Z,101169.06
2022-10-25T22:45:18.123Z,101168.09
2022-10-25T22:47:44.405Z,101169.06
2022-10-25T22:50:11.047Z,101165.28
2022-10-25T22:52:37.362Z,101164.75
2022-10-25T22:55:05.461Z,101162.25
2022-10-25T22:57:31.765Z,101152.06
2022-10-25T22:59:58.059Z,101154.88
2022-10-25T23:02:24.336Z,101153.19
2022-10-25T23:04:50.631Z,101147.03
2022-10-25T23:07:16.911Z,101149.84
2022-10-25T23:09:43.202Z,101154.88
2022-10-25T23:12:10.820Z,101145.91
2022-10-25T23:14:37.101Z,101145.06
2022-10-25T23:17:03.389Z,101133.59
2022-10-25T23:19:29.675Z,101140.88
2022-10-25T23:21:55.954Z,101132.25
2022-10-25T23:24:22.239Z,101140.88
2022-10-25T23:26:48.532Z,101136.25
2022-10-25T23:29:16.188Z,101137.09
2022-10-25T23:31:42.520Z,101141.06
2022-10-25T23:34:09.398Z,101133.09
2022-10-25T23:36:35.692Z,101130.44
2022-10-25T23:39:01.953Z,101128.41
2022-10-25T23:41:28.235Z,101136.41
2022-10-25T23:43:54.527Z,101136.94
2022-10-25T23:46:22.195Z,101128.28
2022-10-25T23:48:48.479Z,101141.41
2022-10-25T23:51:15.737Z,101137.63
2022-10-25T23:53:42.304Z,101130.47
2022-10-25T23:56:09.869Z,101132.31
2022-10-25T23:58:36.178Z,101127.97
